Time;durP1;ratioP1;P1;durP2;ratioP2;P2;SDS_P1;SDS_P2;PMS_P1;PMS_P2;Temp;Humidity;BMP_temperature;BMP_pressure;BME280_temperature;BME280_humidity;BME280_pressure;Samples;Min_cycle;Max_cycle;Signal;HPM_P1;HPM_P2
2022/08/26 00:00:38;;;;;;;8.18;2.65;;;;;;;;;;5055935;28;20021;-67
2022/08/26 00:03:04;;;;;;;9.32;2.55;;;;;;;;;;5055805;28;20048;-68
2022/08/26 00:05:31;;;;;;;7.90;2.75;;;;;;;;;;5055461;28;20032;-67
2022/08/26 00:07:57;;;;;;;8.20;3.00;;;;;;;;;;5055448;28;20029;-67
2022/08/26 00:10:23;;;;;;;9.68;2.90;;;;;;;;;;5055385;28;20033;-67
2022/08/26 00:12:49;;;;;;;11.10;3.53;;;;;;;;;;5055293;28;20029;-67
2022/08/26 00:15:17;;;;;;;11.40;3.65;;;;;;;;;;5037484;28;20028;-67
2022/08/26 00:17:44;;;;;;;7.35;2.95;;;;;;;;;;5055898;28;20435;-68
2022/08/26 00:20:12;;;;;;;10.43;2.45;;;;;;;;;;5055262;28;20036;-67
2022/08/26 00:22:38;;;;;;;13.07;3.00;;;;;;;;;;5055487;28;20021;-67
2022/08/26 00:25:05;;;;;;;14.05;2.60;;;;;;;;;;5055158;28;20029;-68
2022/08/26 00:27:34;;;;;;;11.32;3.13;;;;;;;;;;5055340;28;20488;-67
2022/08/26 00:30:01;;;;;;;16.38;3.35;;;;;;;;;;5055042;28;20040;-68
2022/08/26 00:32:27;;;;;;;11.18;2.75;;;;;;;;;;5054909;28;20036;-68
2022/08/26 00:34:53;;;;;;;7.25;2.97;;;;;;;;;;5055207;28;20096;-67
2022/08/26 00:37:19;;;;;;;10.73;2.60;;;;;;;;;;5055162;28;20025;-68
2022/08/26 00:39:45;;;;;;;8.93;2.70;;;;;;;;;;5054852;28;20508;-67
2022/08/26 00:42:11;;;;;;;7.03;2.60;;;;;;;;;;5054822;28;20048;-67
2022/08/26 00:44:37;;;;;;;9.18;3.00;;;;;;;;;;5054750;28;20029;-67
2022/08/26 00:47:06;;;;;;;7.47;2.38;;;;;;;;;;5054743;28;20518;-68
2022/08/26 00:49:41;;;;;;;7.38;2.25;;;;;;;;;;5054918;28;20033;-68
2022/08/26 00:52:09;;;;;;;10.05;2.70;;;;;;;;;;5054828;28;20025;-68
2022/08/26 00:54:39;;;;;;;7.32;2.63;;;;;;;;;;5054875;28;20029;-68
2022/08/26 00:57:08;;;;;;;12.52;3.40;;;;;;;;;;5053952;28;20044;-68
2022/08/26 00:59:34;;;;;;;10.15;2.75;;;;;;;;;;5054401;28;20082;-67
2022/08/26 01:02:01;;;;;;;8.70;2.72;;;;;;;;;;5054374;28;20025;-68
2022/08/26 01:04:27;;;;;;;10.07;2.90;;;;;;;;;;5054380;28;20036;-67
2022/08/26 01:06:54;;;;;;;11.23;3.88;;;;;;;;;;5054631;28;20362;-68
2022/08/26 01:09:20;;;;;;;10.73;2.97;;;;;;;;;;5054292;28;20036;-67
2022/08/26 01:11:48;;;;;;;8.90;2.75;;;;;;;;;;5054149;28;20029;-67
2022/08/26 01:14:15;;;;;;;11.18;2.80;;;;;;;;;;5054206;28;20035;-67
2022/08/26 01:16:41;;;;;;;9.30;2.60;;;;;;;;;;5054169;28;20027;-68
2022/08/26 01:19:13;;;;;;;7.65;2.33;;;;;;;;;;5054878;28;20389;-68
2022/08/26 01:21:57;;;;;;;7.07;2.50;;;;;;;;;;5054314;28;20420;-68
2022/08/26 01:24:26;;;;;;;10.43;2.92;;;;;;;;;;5054243;28;20473;-68
2022/08/26 01:26:56;;;;;;;9.32;2.72;;;;;;;;;;5053953;28;20078;-67
2022/08/26 01:29:22;;;;;;;5.78;2.42;;;;;;;;;;5054279;28;20025;-68
2022/08/26 01:31:53;;;;;;;9.00;2.72;;;;;;;;;;5053748;28;20045;-67
2022/08/26 01:34:23;;;;;;;8.15;3.38;;;;;;;;;;5054120;28;20378;-67
2022/08/26 01:36:50;;;;;;;9.25;3.10;;;;;;;;;;5054021;28;20018;-68
2022/08/26 01:39:16;;;;;;;8.85;3.47;;;;;;;;;;5054020;28;20021;-67
2022/08/26 01:41:43;;;;;;;9.40;3.20;;;;;;;;;;5053757;28;20450;-67
2022/08/26 01:44:13;;;;;;;7.60;2.70;;;;;;;;;;5053659;28;20096;-67
2022/08/26 01:46:39;;;;;;;;;;;;;;;;;;5035921;28;20516;-67
2022/08/26 01:49:07;;;;;;;4.88;2.30;;;;;;;;;;5054154;28;19912;-67
2022/08/26 01:51:35;;;;;;;6.53;2.42;;;;;;;;;;5053971;28;20052;-68
2022/08/26 01:54:02;;;;;;;6.80;2.58;;;;;;;;;;5053518;28;20082;-68
2022/08/26 01:56:28;;;;;;;10.77;2.92;;;;;;;;;;5056544;28;20465;-67
2022/08/26 01:58:56;;;;;;;6.70;2.17;;;;;;;;;;5073707;28;20027;-68
2022/08/26 02:01:23;;;;;;;6.60;2.38;;;;;;;;;;5073463;28;20029;-68
2022/08/26 02:04:07;;;;;;;12.10;2.75;;;;;;;;;;5073405;28;20447;-67
2022/08/26 02:06:35;;;;;;;8.65;2.60;;;;;;;;;;5072066;28;20058;-67
2022/08/26 02:09:01;;;;;;;10.65;2.83;;;;;;;;;;5072759;28;20059;-67
2022/08/26 02:11:27;;;;;;;8.93;3.25;;;;;;;;;;5073416;28;20025;-68
2022/08/26 02:13:55;;;;;;;6.78;2.83;;;;;;;;;;5073233;28;20021;-67
2022/08/26 02:16:23;;;;;;;7.80;2.45;;;;;;;;;;5073303;28;20021;-67
2022/08/26 02:18:50;;;;;;;9.25;2.60;;;;;;;;;;5073747;28;20050;-68
2022/08/26 02:21:17;;;;;;;8.30;2.70;;;;;;;;;;5073211;28;20081;-67
2022/08/26 02:23:43;;;;;;;8.85;3.05;;;;;;;;;;5073725;28;20031;-67
2022/08/26 02:26:09;;;;;;;13.82;3.50;;;;;;;;;;5073712;28;20024;-68
2022/08/26 02:28:37;;;;;;;7.65;2.63;;;;;;;;;;5073417;28;20032;-67
2022/08/26 02:31:03;;;;;;;10.13;2.85;;;;;;;;;;5073076;28;20035;-67
2022/08/26 02:33:29;;;;;;;8.65;2.65;;;;;;;;;;5073277;28;20110;-66
2022/08/26 02:35:55;;;;;;;6.43;2.72;;;;;;;;;;5073625;28;20461;-68
2022/08/26 02:38:22;;;;;;;8.15;2.70;;;;;;;;;;5073017;28;20499;-68
2022/08/26 02:40:48;;;;;;;8.43;2.72;;;;;;;;;;5073341;28;20118;-67
2022/08/26 02:43:14;;;;;;;11.38;3.63;;;;;;;;;;5072983;28;20035;-67
2022/08/26 02:45:40;;;;;;;8.77;2.40;;;;;;;;;;5072979;28;20032;-68
2022/08/26 02:48:11;;;;;;;6.28;2.40;;;;;;;;;;5073453;28;20546;-67
2022/08/26 02:50:37;;;;;;;7.72;2.70;;;;;;;;;;5072904;28;20040;-67
2022/08/26 02:53:04;;;;;;;6.53;2.53;;;;;;;;;;5072808;28;20548;-67
2022/08/26 02:55:30;;;;;;;12.05;3.35;;;;;;;;;;5068763;28;20045;-67
2022/08/26 02:57:56;;;;;;;8.20;2.47;;;;;;;;;;5052803;28;20029;-68
2022/08/26 03:00:22;;;;;;;5.90;2.50;;;;;;;;;;5052978;28;20027;-68
2022/08/26 03:02:49;;;;;;;5.88;2.20;;;;;;;;;;5053048;28;20400;-67
2022/08/26 03:05:16;;;;;;;7.65;3.13;;;;;;;;;;5052736;28;20029;-67
2022/08/26 03:07:43;;;;;;;7.57;2.80;;;;;;;;;;5052906;28;20053;-67
2022/08/26 03:10:11;;;;;;;7.97;2.53;;;;;;;;;;5052693;28;20452;-67
2022/08/26 03:12:37;;;;;;;5.95;2.78;;;;;;;;;;5052625;28;20029;-67
2022/08/26 03:15:04;;;;;;;8.38;2.45;;;;;;;;;;5052704;28;20048;-68
2022/08/26 03:17:30;;;;;;;7.15;2.90;;;;;;;;;;5034801;28;20452;-67
2022/08/26 03:19:56;;;;;;;10.35;3.40;;;;;;;;;;5053163;28;20079;-67
2022/08/26 03:22:22;;;;;;;7.38;2.88;;;;;;;;;;5056186;28;20466;-67
2022/08/26 03:24:48;;;;;;;8.73;2.70;;;;;;;;;;5056273;28;20029;-66
2022/08/26 03:27:15;;;;;;;7.65;2.65;;;;;;;;;;5056229;28;20029;-68
2022/08/26 03:32:25;;;;;;;6.03;2.78;;;;;;;;;;5056460;28;20032;-68
2022/08/26 03:34:53;;;;;;;6.18;2.70;;;;;;;;;;5056102;28;20389;-67
2022/08/26 03:37:20;;;;;;;4.93;2.05;;;;;;;;;;5056438;28;20021;-67
2022/08/26 03:39:46;;;;;;;5.88;2.25;;;;;;;;;;5056074;28;20040;-67
2022/08/26 03:42:13;;;;;;;6.57;2.60;;;;;;;;;;5055979;28;20025;-67
2022/08/26 03:44:39;;;;;;;7.93;2.38;;;;;;;;;;5056206;28;20017;-67
2022/08/26 03:47:06;;;;;;;8.35;2.53;;;;;;;;;;5056215;28;20028;-67
2022/08/26 03:49:33;;;;;;;7.15;2.63;;;;;;;;;;5055788;28;20021;-67
2022/08/26 03:51:59;;;;;;;8.18;2.58;;;;;;;;;;5037838;28;20068;-68
2022/08/26 03:54:25;;;;;;;7.05;2.53;;;;;;;;;;5055704;28;20020;-67
2022/08/26 03:56:52;;;;;;;12.68;2.58;;;;;;;;;;5055401;28;20049;-67
2022/08/26 03:59:18;;;;;;;6.53;2.55;;;;;;;;;;5055690;28;20493;-67
2022/08/26 04:01:45;;;;;;;4.25;2.03;;;;;;;;;;5055852;28;20370;-67
2022/08/26 04:04:11;;;;;;;9.68;2.90;;;;;;;;;;5055622;28;20045;-67
2022/08/26 04:06:38;;;;;;;7.32;2.67;;;;;;;;;;5055523;28;20040;-68
2022/08/26 04:09:06;;;;;;;6.90;2.58;;;;;;;;;;5055528;28;20497;-67
2022/08/26 04:11:34;;;;;;;9.02;2.58;;;;;;;;;;5055481;28;20098;-67
2022/08/26 04:14:01;;;;;;;6.75;2.40;;;;;;;;;;5055380;28;20020;-68
2022/08/26 04:16:28;;;;;;;6.78;2.65;;;;;;;;;;5055348;28;20366;-68
2022/08/26 04:18:54;;;;;;;8.05;2.42;;;;;;;;;;5056097;28;20028;-68
2022/08/26 04:21:20;;;;;;;9.95;2.70;;;;;;;;;;5055255;28;20029;-67
2022/08/26 04:23:46;;;;;;;14.82;3.08;;;;;;;;;;5055496;28;20108;-67
2022/08/26 04:26:12;;;;;;;7.28;2.35;;;;;;;;;;5037323;28;20033;-67
2022/08/26 04:28:38;;;;;;;5.03;2.20;;;;;;;;;;5055110;28;20025;-67
2022/08/26 04:31:07;;;;;;;7.13;2.38;;;;;;;;;;5055055;28;20083;-67
2022/08/26 04:33:34;;;;;;;6.85;2.47;;;;;;;;;;5054444;28;20025;-68
2022/08/26 04:36:04;;;;;;;8.73;2.30;;;;;;;;;;5055002;28;20032;-68
2022/08/26 04:38:30;;;;;;;7.60;2.90;;;;;;;;;;5054989;28;20017;-67
2022/08/26 04:40:56;;;;;;;4.85;2.00;;;;;;;;;;5055147;28;20086;-67
2022/08/26 04:43:27;;;;;;;7.80;2.30;;;;;;;;;;5054873;28;20052;-67
2022/08/26 04:45:54;;;;;;;5.80;2.20;;;;;;;;;;5055112;28;20029;-67
2022/08/26 04:48:20;;;;;;;7.55;2.70;;;;;;;;;;5054754;28;20025;-67
2022/08/26 04:50:46;;;;;;;6.65;2.28;;;;;;;;;;5054656;28;20033;-67
2022/08/26 04:53:13;;;;;;;4.85;2.10;;;;;;;;;;5054580;28;20047;-68
2022/08/26 04:55:39;;;;;;;10.40;2.42;;;;;;;;;;5054791;28;20049;-68
2022/08/26 04:58:07;;;;;;;8.35;2.28;;;;;;;;;;5054566;28;20028;-68
2022/08/26 05:00:33;;;;;;;8.88;2.40;;;;;;;;;;5054414;28;20495;-67
2022/08/26 05:03:00;;;;;;;4.82;1.98;;;;;;;;;;5054718;28;20021;-68
2022/08/26 05:05:26;;;;;;;6.30;2.45;;;;;;;;;;5054407;28;20025;-68
2022/08/26 05:07:52;;;;;;;5.00;2.25;;;;;;;;;;5054371;28;20470;-67
2022/08/26 05:10:18;;;;;;;4.75;2.05;;;;;;;;;;5054328;28;20061;-67
2022/08/26 05:12:44;;;;;;;4.75;2.08;;;;;;;;;;5054767;28;20025;-67
2022/08/26 05:15:10;;;;;;;8.98;2.30;;;;;;;;;;5054514;28;20028;-67
2022/08/26 05:17:37;;;;;;;6.75;2.97;;;;;;;;;;5054693;28;20027;-68
2022/08/26 05:20:04;;;;;;;6.50;2.20;;;;;;;;;;5054693;28;20032;-67
2022/08/26 05:22:30;;;;;;;4.80;2.20;;;;;;;;;;5054069;28;20404;-67
2022/08/26 05:24:56;;;;;;;8.32;2.88;;;;;;;;;;5054026;28;20036;-67
2022/08/26 05:27:22;;;;;;;5.95;2.08;;;;;;;;;;5053998;28;20028;-67
2022/08/26 05:29:48;;;;;;;6.50;2.33;;;;;;;;;;5053944;28;20036;-67
2022/08/26 05:32:14;;;;;;;6.53;1.90;;;;;;;;;;5053802;28;20515;-68
2022/08/26 05:34:40;;;;;;;8.73;2.28;;;;;;;;;;5053816;28;20028;-67
2022/08/26 05:37:06;;;;;;;4.85;2.15;;;;;;;;;;5053764;28;20541;-68
2022/08/26 05:39:32;;;;;;;8.93;2.55;;;;;;;;;;5053703;28;20109;-67
2022/08/26 05:41:59;;;;;;;9.13;2.40;;;;;;;;;;5053988;28;20108;-67
2022/08/26 05:44:25;;;;;;;12.90;2.63;;;;;;;;;;5053629;28;20028;-67
2022/08/26 05:46:50;;;;;;;7.95;1.77;;;;;;;;;;5053912;28;20013;-67
2022/08/26 05:49:17;;;;;;;8.60;2.40;;;;;;;;;;5053620;28;20031;-67
2022/08/26 05:51:45;;;;;;;5.22;1.85;;;;;;;;;;5053547;28;20063;-68
2022/08/26 05:54:11;;;;;;;6.60;2.25;;;;;;;;;;5053595;28;20109;-67
2022/08/26 05:56:37;;;;;;;11.32;2.20;;;;;;;;;;5058801;28;20480;-68
2022/08/26 05:59:03;;;;;;;7.10;2.30;;;;;;;;;;5073495;28;20088;-67
2022/08/26 06:01:29;;;;;;;4.88;2.15;;;;;;;;;;5073314;28;20021;-67
2022/08/26 06:03:57;;;;;;;4.65;2.28;;;;;;;;;;5073955;28;20423;-68
2022/08/26 06:06:26;;;;;;;7.47;2.33;;;;;;;;;;5073705;28;20099;-67
2022/08/26 06:08:52;;;;;;;6.85;2.13;;;;;;;;;;5073660;28;20384;-67
2022/08/26 06:11:20;;;;;;;5.30;2.50;;;;;;;;;;5073331;28;20107;-67
2022/08/26 06:13:46;;;;;;;5.00;2.45;;;;;;;;;;5073209;28;20077;-68
2022/08/26 06:16:13;;;;;;;9.77;2.90;;;;;;;;;;5073830;28;20380;-67
2022/08/26 06:18:43;;;;;;;8.93;2.95;;;;;;;;;;5073571;28;20075;-68
2022/08/26 06:21:12;;;;;;;8.18;2.08;;;;;;;;;;5073488;28;20024;-67
2022/08/26 06:26:22;;;;;;;7.70;2.50;;;;;;;;;;5073509;28;20082;-67
2022/08/26 06:28:48;;;;;;;9.50;2.60;;;;;;;;;;5073185;28;20028;-69
2022/08/26 06:31:14;;;;;;;5.47;1.98;;;;;;;;;;5071853;28;20443;-69
2022/08/26 06:33:41;;;;;;;6.35;1.92;;;;;;;;;;5073026;28;20103;-69
2022/08/26 06:36:07;;;;;;;6.80;1.90;;;;;;;;;;5071789;28;20505;-69
2022/08/26 06:38:33;;;;;;;7.03;1.92;;;;;;;;;;5073319;28;20028;-69
2022/08/26 06:40:59;;;;;;;8.57;1.75;;;;;;;;;;5073016;28;20388;-69
2022/08/26 06:43:26;;;;;;;8.25;1.85;;;;;;;;;;5072995;28;20027;-70
2022/08/26 06:45:59;;;;;;;7.45;1.90;;;;;;;;;;5072990;28;20477;-70
2022/08/26 06:48:25;;;;;;;7.03;1.77;;;;;;;;;;5073287;28;20389;-69
2022/08/26 06:51:00;;;;;;;7.85;2.28;;;;;;;;;;5072985;28;20028;-69
2022/08/26 06:53:26;;;;;;;4.95;2.33;;;;;;;;;;5071335;28;20036;-69
2022/08/26 06:55:52;;;;;;;5.50;1.80;;;;;;;;;;5066619;28;20100;-69
2022/08/26 06:58:18;;;;;;;6.70;1.55;;;;;;;;;;5056814;28;20099;-69
2022/08/26 07:00:44;;;;;;;5.30;1.50;;;;;;;;;;5056751;28;20442;-70
2022/08/26 07:03:12;;;;;;;6.90;2.05;;;;;;;;;;5056719;28;20025;-68
2022/08/26 07:05:38;;;;;;;5.35;1.67;;;;;;;;;;5056978;28;20448;-69
2022/08/26 07:08:04;;;;;;;7.53;1.60;;;;;;;;;;5056936;28;20424;-70
2022/08/26 07:10:30;;;;;;;7.45;1.50;;;;;;;;;;5056641;28;20055;-70
2022/08/26 07:12:56;;;;;;;5.65;1.90;;;;;;;;;;5056503;28;20056;-69
2022/08/26 07:15:22;;;;;;;7.20;1.65;;;;;;;;;;5057051;28;20094;-68
2022/08/26 07:17:48;;;;;;;5.65;1.77;;;;;;;;;;5056743;28;20485;-69
2022/08/26 07:20:15;;;;;;;6.00;1.60;;;;;;;;;;5056981;28;20063;-69
2022/08/26 07:22:41;;;;;;;5.15;1.77;;;;;;;;;;5056385;28;20079;-69
2022/08/26 07:25:08;;;;;;;6.72;2.08;;;;;;;;;;5056328;28;20048;-70
2022/08/26 07:27:35;;;;;;;6.97;1.67;;;;;;;;;;5056281;28;20024;-70
2022/08/26 07:30:01;;;;;;;5.15;1.67;;;;;;;;;;5056271;28;20048;-70
2022/08/26 07:32:27;;;;;;;8.13;1.67;;;;;;;;;;5056105;28;20036;-70
2022/08/26 07:34:53;;;;;;;5.85;1.50;;;;;;;;;;5056690;28;20017;-70
2022/08/26 07:37:19;;;;;;;6.95;1.52;;;;;;;;;;5056652;28;20147;-70
2022/08/26 07:39:46;;;;;;;9.13;1.67;;;;;;;;;;5056094;28;20028;-70
2022/08/26 07:42:13;;;;;;;5.97;1.48;;;;;;;;;;5056614;28;20025;-70
2022/08/26 07:44:39;;;;;;;5.40;1.33;;;;;;;;;;5056303;28;20021;-70
2022/08/26 07:47:07;;;;;;;5.68;1.70;;;;;;;;;;5055966;28;20121;-70
2022/08/26 07:49:33;;;;;;;5.72;1.52;;;;;;;;;;5055906;28;20401;-71
2022/08/26 07:51:59;;;;;;;5.55;1.50;;;;;;;;;;5055766;28;20032;-69
2022/08/26 07:54:25;;;;;;;5.72;1.50;;;;;;;;;;5055828;28;20025;-69
2022/08/26 07:56:51;;;;;;;7.65;1.42;;;;;;;;;;5055566;28;20103;-69
2022/08/26 07:59:18;;;;;;;7.35;1.63;;;;;;;;;;5055678;28;20016;-69
2022/08/26 08:01:44;;;;;;;5.45;1.50;;;;;;;;;;5055578;28;20021;-69
2022/08/26 08:04:10;;;;;;;6.15;1.95;;;;;;;;;;5055638;28;20036;-69
2022/08/26 08:06:37;;;;;;;6.20;2.00;;;;;;;;;;5055221;28;20083;-71
2022/08/26 08:09:04;;;;;;;7.53;1.60;;;;;;;;;;5055031;28;20029;-70
2022/08/26 08:11:31;;;;;;;6.85;1.50;;;;;;;;;;5055488;28;20029;-71
2022/08/26 08:13:59;;;;;;;7.07;1.65;;;;;;;;;;5055679;28;20489;-70
2022/08/26 08:16:25;;;;;;;5.95;1.30;;;;;;;;;;5055447;28;20032;-70
2022/08/26 08:18:52;;;;;;;5.95;1.30;;;;;;;;;;5055616;28;20028;-70
2022/08/26 08:21:18;;;;;;;5.70;1.30;;;;;;;;;;5055796;28;20053;-70
2022/08/26 08:23:44;;;;;;;3.85;1.25;;;;;;;;;;5055277;28;20028;-70
2022/08/26 08:26:10;;;;;;;6.78;1.67;;;;;;;;;;5055182;28;20395;-75
2022/08/26 08:28:37;;;;;;;6.32;1.60;;;;;;;;;;5055144;28;20038;-70
2022/08/26 08:31:04;;;;;;;4.90;1.52;;;;;;;;;;5055109;28;20474;-71
2022/08/26 08:33:30;;;;;;;8.55;1.65;;;;;;;;;;5054973;28;20029;-70
2022/08/26 08:35:57;;;;;;;8.73;1.48;;;;;;;;;;5055029;28;20036;-70
2022/08/26 08:38:23;;;;;;;5.53;1.30;;;;;;;;;;5055491;28;20060;-70
2022/08/26 08:40:49;;;;;;;6.57;1.75;;;;;;;;;;5054914;28;20025;-70
2022/08/26 08:43:22;;;;;;;5.15;1.35;;;;;;;;;;5055151;28;20025;-70
2022/08/26 08:45:51;;;;;;;5.53;1.40;;;;;;;;;;5036686;28;20033;-70
2022/08/26 08:48:21;;;;;;;4.72;1.30;;;;;;;;;;5054768;28;20029;-70
2022/08/26 08:50:50;;;;;;;6.78;1.63;;;;;;;;;;5055261;28;20037;-70
2022/08/26 08:53:19;;;;;;;4.85;2.13;;;;;;;;;;5054881;28;20025;-70
2022/08/26 08:55:47;;;;;;;8.07;1.50;;;;;;;;;;5054690;28;20482;-70
2022/08/26 08:58:17;;;;;;;4.25;1.30;;;;;;;;;;5036726;28;20024;-70
2022/08/26 09:00:57;;;;;;;6.97;1.20;;;;;;;;;;5054698;28;20017;-70
2022/08/26 09:03:23;;;;;;;7.72;1.67;;;;;;;;;;5054809;28;20032;-70
2022/08/26 09:05:51;;;;;;;9.73;1.85;;;;;;;;;;5054930;28;20021;-70
2022/08/26 09:08:21;;;;;;;4.50;1.30;;;;;;;;;;5054970;28;20025;-70
2022/08/26 09:10:50;;;;;;;3.38;1.30;;;;;;;;;;5054346;28;20108;-70
2022/08/26 09:13:17;;;;;;;5.97;1.55;;;;;;;;;;5054173;28;20107;-70
2022/08/26 09:15:46;;;;;;;6.50;1.55;;;;;;;;;;5054508;28;20021;-70
2022/08/26 09:18:27;;;;;;;3.93;1.33;;;;;;;;;;5053893;28;20031;-70
2022/08/26 09:21:04;;;;;;;6.53;1.40;;;;;;;;;;5054876;28;20258;-70
2022/08/26 09:23:31;;;;;;;7.53;1.33;;;;;;;;;;5054389;28;20052;-70
2022/08/26 09:25:57;;;;;;;6.85;1.30;;;;;;;;;;5054557;28;20078;-70
2022/08/26 09:28:25;;;;;;;5.43;1.45;;;;;;;;;;5054015;28;20107;-70
2022/08/26 09:31:02;;;;;;;5.03;1.55;;;;;;;;;;5053957;28;20033;-70
2022/08/26 09:33:30;;;;;;;4.93;1.25;;;;;;;;;;5054099;28;20547;-70
2022/08/26 09:36:12;;;;;;;5.72;1.65;;;;;;;;;;5053885;28;20521;-70
2022/08/26 09:38:38;;;;;;;5.47;1.60;;;;;;;;;;5053842;28;20027;-70
2022/08/26 09:41:05;;;;;;;6.75;2.25;;;;;;;;;;5053802;28;20408;-70
2022/08/26 09:43:32;;;;;;;4.40;1.45;;;;;;;;;;5053704;28;20049;-70
2022/08/26 09:46:13;;;;;;;6.70;1.48;;;;;;;;;;5053721;28;20040;-70
2022/08/26 09:48:41;;;;;;;6.25;1.63;;;;;;;;;;5053900;28;20059;-70
2022/08/26 09:51:22;;;;;;;6.18;1.60;;;;;;;;;;5054151;28;20052;-70
2022/08/26 09:53:52;;;;;;;7.20;1.63;;;;;;;;;;5054020;28;20110;-70
2022/08/26 09:56:39;;;;;;;3.78;1.40;;;;;;;;;;5053282;28;20049;-70
2022/08/26 09:59:09;;;;;;;5.85;1.40;;;;;;;;;;5053798;28;20024;-70
2022/08/26 10:01:38;;;;;;;5.82;1.50;;;;;;;;;;5053394;28;20099;-70
2022/08/26 10:04:19;;;;;;;4.38;1.50;;;;;;;;;;5053723;28;20105;-70
2022/08/26 10:07:03;;;;;;;3.40;1.20;;;;;;;;;;5053691;28;20102;-70
2022/08/26 10:09:33;;;;;;;3.75;1.00;;;;;;;;;;5053933;28;20021;-70
2022/08/26 10:12:20;;;;;;;5.85;1.38;;;;;;;;;;5053225;28;20036;-69
2022/08/26 10:14:52;;;;;;;4.95;1.40;;;;;;;;;;5053544;28;20021;-70
2022/08/26 10:17:25;;;;;;;6.03;1.50;;;;;;;;;;5053214;28;20029;-70
2022/08/26 10:19:58;;;;;;;6.75;1.52;;;;;;;;;;5053792;28;20024;-70
2022/08/26 10:22:30;;;;;;;7.38;1.50;;;;;;;;;;5053495;28;20025;-70
2022/08/26 10:24:58;;;;;;;7.97;1.83;;;;;;;;;;5053690;28;20033;-70
2022/08/26 10:27:24;;;;;;;5.45;1.50;;;;;;;;;;5035207;28;20394;-70
2022/08/26 10:29:51;;;;;;;5.50;1.15;;;;;;;;;;5053099;28;20100;-70
2022/08/26 10:32:20;;;;;;;4.72;1.60;;;;;;;;;;5052654;28;20440;-70
2022/08/26 10:34:46;;;;;;;6.35;1.42;;;;;;;;;;5053123;28;20017;-70
2022/08/26 10:37:22;;;;;;;5.13;0.95;;;;;;;;;;5053339;28;20017;-70
2022/08/26 10:39:48;;;;;;;3.75;1.40;;;;;;;;;;5053389;28;20086;-70
2022/08/26 10:42:23;;;;;;;3.88;1.00;;;;;;;;;;5053002;28;20474;-70
2022/08/26 10:44:50;;;;;;;4.75;1.27;;;;;;;;;;5052944;28;20416;-70
2022/08/26 10:47:30;;;;;;;5.20;1.50;;;;;;;;;;5052907;28;20040;-70
2022/08/26 10:49:58;;;;;;;8.30;1.55;;;;;;;;;;5053546;28;20021;-70
2022/08/26 10:52:30;;;;;;;6.97;1.45;;;;;;;;;;5053083;28;20492;-70
2022/08/26 10:54:56;;;;;;;5.07;1.60;;;;;;;;;;5052992;28;20025;-70
2022/08/26 10:57:36;;;;;;;5.80;1.58;;;;;;;;;;5052423;28;20041;-70
2022/08/26 11:03:24;;;;;;;3.45;1.23;;;;;;;;;;5052571;28;20040;-70
2022/08/26 11:06:10;;;;;;;4.28;1.17;;;;;;;;;;5037041;28;20486;-70
2022/08/26 11:08:44;;;;;;;6.22;1.73;;;;;;;;;;5052966;28;20025;-69
2022/08/26 11:11:10;;;;;;;7.75;1.50;;;;;;;;;;5052757;28;20057;-70
2022/08/26 11:13:55;;;;;;;5.53;1.30;;;;;;;;;;5052659;28;20056;-70
2022/08/26 11:16:35;;;;;;;4.78;1.17;;;;;;;;;;5053214;28;20025;-70
2022/08/26 11:19:01;;;;;;;5.50;1.25;;;;;;;;;;5052638;28;20021;-70
2022/08/26 11:21:46;;;;;;;5.75;1.10;;;;;;;;;;5053619;28;20025;-70
2022/08/26 11:24:38;;;;;;;6.93;1.20;;;;;;;;;;5052595;28;20049;-69
2022/08/26 11:27:06;;;;;;;4.68;1.05;;;;;;;;;;5034768;28;20048;-70
2022/08/26 11:29:51;;;;;;;2.28;0.95;;;;;;;;;;5053113;28;20035;-70
2022/08/26 11:32:24;;;;;;;4.68;1.17;;;;;;;;;;5053009;28;20029;-70
2022/08/26 11:34:53;;;;;;;5.03;1.55;;;;;;;;;;5053056;28;20457;-70
2022/08/26 11:37:22;;;;;;;4.10;1.83;;;;;;;;;;5052486;28;20503;-70
2022/08/26 11:39:53;;;;;;;4.20;1.38;;;;;;;;;;5052493;28;20083;-70
2022/08/26 11:42:34;;;;;;;8.68;1.55;;;;;;;;;;5054419;28;20021;-69
2022/08/26 11:45:02;;;;;;;3.25;1.08;;;;;;;;;;5056034;28;20396;-69
2022/08/26 11:47:30;;;;;;;4.60;1.20;;;;;;;;;;5056204;28;20028;-70
2022/08/26 11:50:11;;;;;;;6.70;1.63;;;;;;;;;;5056230;28;20057;-69
2022/08/26 11:52:37;;;;;;;3.88;1.70;;;;;;;;;;5056310;28;20025;-69
2022/08/26 11:55:06;;;;;;;4.75;1.10;;;;;;;;;;5056161;28;20027;-69
2022/08/26 11:57:33;;;;;;;5.65;1.45;;;;;;;;;;5056360;28;20025;-70
2022/08/26 12:00:00;;;;;;;1.77;0.95;;;;;;;;;;5037813;28;20032;-69
2022/08/26 12:02:26;;;;;;;3.45;1.05;;;;;;;;;;5055546;28;20405;-70
2022/08/26 12:04:53;;;;;;;4.63;1.10;;;;;;;;;;5055600;28;20112;-70
2022/08/26 12:07:22;;;;;;;4.30;1.50;;;;;;;;;;5055541;28;20029;-70
2022/08/26 12:09:56;;;;;;;5.28;1.08;;;;;;;;;;5037610;28;20123;-69
2022/08/26 12:12:24;;;;;;;3.25;1.13;;;;;;;;;;5055665;28;20033;-69
2022/08/26 12:15:03;;;;;;;4.75;1.33;;;;;;;;;;5055432;28;20025;-69
2022/08/26 12:17:30;;;;;;;4.03;1.08;;;;;;;;;;5055491;28;20059;-69
2022/08/26 12:19:56;;;;;;;2.92;1.10;;;;;;;;;;5038053;28;20033;-69
2022/08/26 12:22:26;;;;;;;3.63;1.30;;;;;;;;;;5055305;28;20025;-69
2022/08/26 12:25:00;;;;;;;3.75;1.55;;;;;;;;;;5055256;28;20035;-69
2022/08/26 12:27:33;;;;;;;3.63;1.20;;;;;;;;;;5055527;28;20025;-69
2022/08/26 12:30:08;;;;;;;4.40;1.50;;;;;;;;;;5055123;28;20036;-69
2022/08/26 12:32:38;;;;;;;3.83;1.27;;;;;;;;;;5055048;28;20025;-69
2022/08/26 12:35:06;;;;;;;4.28;1.23;;;;;;;;;;5055364;28;20017;-69
2022/08/26 12:37:34;;;;;;;5.03;1.55;;;;;;;;;;5055002;28;20021;-69
2022/08/26 12:40:19;;;;;;;2.63;1.10;;;;;;;;;;5055243;28;20025;-69
2022/08/26 12:42:45;;;;;;;5.45;1.40;;;;;;;;;;5054918;28;20100;-69
2022/08/26 12:45:11;;;;;;;4.55;1.40;;;;;;;;;;5037015;28;20035;-69
2022/08/26 12:47:42;;;;;;;4.32;1.30;;;;;;;;;;5054556;28;20025;-68
2022/08/26 12:50:10;;;;;;;3.00;1.08;;;;;;;;;;5053576;28;20485;-68
2022/08/26 12:52:56;;;;;;;3.85;0.95;;;;;;;;;;5053148;28;20021;-69
2022/08/26 12:55:24;;;;;;;8.40;1.33;;;;;;;;;;5031828;28;20571;-69
2022/08/26 12:57:50;;;;;;;2.95;1.20;;;;;;;;;;5053485;28;20104;-69
2022/08/26 13:00:24;;;;;;;3.13;0.95;;;;;;;;;;5053173;28;20021;-68
2022/08/26 13:02:50;;;;;;;6.25;1.40;;;;;;;;;;5054186;28;20416;-69
2022/08/26 13:05:21;;;;;;;3.70;1.13;;;;;;;;;;5054249;28;20032;-69
2022/08/26 13:08:05;;;;;;;4.85;1.40;;;;;;;;;;5054992;28;20021;-69
2022/08/26 13:10:35;;;;;;;5.18;1.20;;;;;;;;;;5054905;28;20123;-69
2022/08/26 13:13:01;;;;;;;5.20;1.15;;;;;;;;;;5036396;28;20028;-69
2022/08/26 13:15:27;;;;;;;3.70;1.33;;;;;;;;;;5036439;28;20033;-69
2022/08/26 13:17:53;;;;;;;5.45;1.52;;;;;;;;;;5054473;28;20095;-69
2022/08/26 13:20:19;;;;;;;5.88;1.27;;;;;;;;;;5054736;28;20029;-69
2022/08/26 13:22:46;;;;;;;3.75;1.35;;;;;;;;;;5054442;28;20021;-68
2022/08/26 13:25:12;;;;;;;6.05;1.17;;;;;;;;;;5054369;28;20056;-70
2022/08/26 13:27:38;;;;;;;4.13;1.33;;;;;;;;;;5054349;28;20048;-69
2022/08/26 13:30:04;;;;;;;3.38;1.15;;;;;;;;;;5053993;28;20374;-69
2022/08/26 13:32:30;;;;;;;7.53;1.52;;;;;;;;;;5053907;28;20029;-69
2022/08/26 13:34:56;;;;;;;4.55;1.30;;;;;;;;;;5054154;28;20104;-69
2022/08/26 13:37:23;;;;;;;3.55;1.00;;;;;;;;;;5053828;28;20017;-69
2022/08/26 13:39:49;;;;;;;3.65;1.15;;;;;;;;;;5054080;28;20025;-70
2022/08/26 13:42:16;;;;;;;3.38;1.15;;;;;;;;;;5053767;28;20504;-69
2022/08/26 13:44:43;;;;;;;3.85;1.33;;;;;;;;;;5054015;28;20031;-69
2022/08/26 13:47:10;;;;;;;6.82;1.45;;;;;;;;;;5053956;28;20013;-69
2022/08/26 13:49:36;;;;;;;5.30;1.70;;;;;;;;;;5053948;28;20017;-68
2022/08/26 13:52:02;;;;;;;3.08;1.13;;;;;;;;;;5053576;28;20024;-69
2022/08/26 13:54:28;;;;;;;6.30;2.17;;;;;;;;;;5053887;28;20029;-68
2022/08/26 13:56:54;;;;;;;5.63;1.70;;;;;;;;;;5053199;28;20523;-69
2022/08/26 13:59:20;;;;;;;5.47;1.30;;;;;;;;;;5053519;28;20104;-69
2022/08/26 14:01:46;;;;;;;4.90;1.48;;;;;;;;;;5053423;28;20063;-70
2022/08/26 14:04:13;;;;;;;3.88;1.15;;;;;;;;;;5053720;28;20033;-69
2022/08/26 14:06:39;;;;;;;2.67;1.15;;;;;;;;;;5052536;28;20385;-70
2022/08/26 14:09:05;;;;;;;7.15;1.65;;;;;;;;;;5053384;28;20033;-69
2022/08/26 14:11:31;;;;;;;4.90;1.67;;;;;;;;;;5053359;28;20421;-68
2022/08/26 14:13:57;;;;;;;4.22;1.38;;;;;;;;;;5053286;28;20033;-70
2022/08/26 14:16:26;;;;;;;5.97;1.58;;;;;;;;;;5053352;28;20025;-69
2022/08/26 14:18:53;;;;;;;5.53;1.63;;;;;;;;;;5053609;28;20025;-69
2022/08/26 14:21:19;;;;;;;3.80;1.27;;;;;;;;;;5053763;28;20098;-69
2022/08/26 14:23:45;;;;;;;4.05;1.33;;;;;;;;;;5053217;28;20029;-70
2022/08/26 14:26:11;;;;;;;6.68;1.77;;;;;;;;;;5053461;28;20461;-68
2022/08/26 14:28:37;;;;;;;5.13;1.40;;;;;;;;;;5053152;28;20032;-69
2022/08/26 14:31:04;;;;;;;2.45;1.00;;;;;;;;;;5053116;28;20432;-69
2022/08/26 14:33:31;;;;;;;8.80;1.63;;;;;;;;;;5053006;28;20112;-70
2022/08/26 14:36:26;;;;;;;3.00;1.10;;;;;;;;;;5053054;28;20540;-70
2022/08/26 14:38:44;;;;;;;4.88;1.65;;;;;;;;;;5052854;28;20036;-69
2022/08/26 14:41:11;;;;;;;3.35;1.23;;;;;;;;;;5053061;28;20078;-69
2022/08/26 14:43:39;;;;;;;3.55;1.27;;;;;;;;;;5053022;28;20120;-68
2022/08/26 14:46:05;;;;;;;4.75;1.75;;;;;;;;;;5052975;28;20043;-69
2022/08/26 14:48:31;;;;;;;3.90;1.27;;;;;;;;;;5052934;28;20478;-69
2022/08/26 14:50:57;;;;;;;4.78;1.23;;;;;;;;;;5052876;28;20104;-69
2022/08/26 14:56:08;;;;;;;3.55;1.25;;;;;;;;;;5052871;28;20108;-69
2022/08/26 14:58:34;;;;;;;4.20;1.83;;;;;;;;;;5052907;28;20025;-68
2022/08/26 15:01:00;;;;;;;3.10;1.10;;;;;;;;;;5052766;28;20021;-68